createdAt,value
2016-10-11T00:00:33.533Z,1038.78
2016-10-11T00:01:33.523Z,1038.79
2016-10-11T00:02:33.515Z,1038.77
2016-10-11T00:03:33.508Z,1038.77
2016-10-11T00:04:33.498Z,1038.76
2016-10-11T00:05:33.490Z,1038.73
2016-10-11T00:06:33.480Z,1038.74
2016-10-11T00:07:33.473Z,1038.77
2016-10-11T00:08:33.462Z,1038.76
2016-10-11T00:09:33.453Z,1038.77
2016-10-11T00:10:33.445Z,1038.79
2016-10-11T00:11:33.437Z,1038.81
2016-10-11T00:12:33.427Z,1038.86
2016-10-11T00:13:33.417Z,1038.84
2016-10-11T00:14:33.409Z,1038.85
2016-10-11T00:15:33.400Z,1038.83
2016-10-11T00:16:33.391Z,1038.82
2016-10-11T00:17:33.382Z,1038.83
2016-10-11T00:18:33.376Z,1038.8
2016-10-11T00:19:33.517Z,1038.85
2016-10-11T00:20:33.355Z,1038.82
2016-10-11T00:21:33.847Z,1038.87
2016-10-11T00:22:33.338Z,1038.9
2016-10-11T00:23:33.328Z,1038.88
2016-10-11T00:24:33.322Z,1038.89
2016-10-11T00:25:33.313Z,1038.86
2016-10-11T00:26:33.303Z,1038.86
2016-10-11T00:27:33.295Z,1038.78
2016-10-11T00:28:33.286Z,1038.8
2016-10-11T00:29:33.275Z,1038.78
2016-10-11T00:30:33.268Z,1038.76
2016-10-11T00:31:33.257Z,1038.73
2016-10-11T00:32:33.249Z,1038.75
2016-10-11T00:33:33.240Z,1038.72
2016-10-11T00:34:33.232Z,1038.72
2016-10-11T00:35:33.224Z,1038.67
2016-10-11T00:36:33.215Z,1038.71
2016-10-11T00:37:33.204Z,1038.66
2016-10-11T00:38:33.195Z,1038.69
2016-10-11T00:39:33.187Z,1038.67
2016-10-11T00:40:33.180Z,1038.63
2016-10-11T00:41:33.169Z,1038.63
2016-10-11T00:42:33.160Z,1038.58
2016-10-11T00:43:33.152Z,1038.56
2016-10-11T00:44:33.145Z,1038.53
2016-10-11T00:45:33.135Z,1038.54
2016-10-11T00:46:33.127Z,1038.54
2016-10-11T00:47:33.118Z,1038.55
2016-10-11T00:48:33.108Z,1038.57
2016-10-11T00:50:33.091Z,1038.57
2016-10-11T00:51:34.387Z,1038.59
2016-10-11T00:52:34.207Z,1038.57
2016-10-11T00:53:33.063Z,1038.55
2016-10-11T00:54:33.055Z,1038.5
2016-10-11T00:55:33.046Z,1038.47
2016-10-11T00:56:33.037Z,1038.51
2016-10-11T00:57:33.028Z,1038.51
2016-10-11T00:58:33.020Z,1038.45
2016-10-11T00:59:33.324Z,1038.43
2016-10-11T01:00:33.004Z,1038.44
2016-10-11T01:01:32.995Z,1038.41
2016-10-11T01:02:32.987Z,1038.38
2016-10-11T01:03:33.774Z,1038.38
2016-10-11T01:04:32.968Z,1038.33
2016-10-11T01:05:32.958Z,1038.3
2016-10-11T01:06:32.955Z,1038.26
2016-10-11T01:07:32.941Z,1038.22
2016-10-11T01:08:32.932Z,1038.19
2016-10-11T01:09:32.926Z,1038.16
2016-10-11T01:10:32.915Z,1038.14
2016-10-11T01:11:32.907Z,1038.1
2016-10-11T01:12:32.897Z,1038.09
2016-10-11T01:13:32.891Z,1038.07
2016-10-11T01:14:32.880Z,1038.07
2016-10-11T01:15:32.873Z,1038.06
2016-10-11T01:16:32.863Z,1038.07
2016-10-11T01:17:32.856Z,1038.12
2016-10-11T01:18:32.845Z,1038.11
2016-10-11T01:19:32.837Z,1038.1
2016-10-11T01:20:32.828Z,1038.1
2016-10-11T01:21:32.826Z,1038.13
2016-10-11T01:22:32.811Z,1038.11
2016-10-11T01:23:32.802Z,1038.1
2016-10-11T01:24:32.796Z,1038.1
2016-10-11T01:25:32.787Z,1038.14
2016-10-11T01:26:32.776Z,1038.13
2016-10-11T01:27:32.768Z,1038.13
2016-10-11T01:28:32.759Z,1038.15
2016-10-11T01:29:32.750Z,1038.14
2016-10-11T01:30:32.742Z,1038.16
2016-10-11T01:31:32.733Z,1038.11
2016-10-11T01:32:32.725Z,1038.13
2016-10-11T01:33:32.716Z,1038.14
2016-10-11T01:34:33.258Z,1038.14
2016-10-11T01:35:32.899Z,1038.12
2016-10-11T01:36:32.690Z,1038.09
2016-10-11T01:37:32.683Z,1038.08
2016-10-11T01:38:32.673Z,1038.03
2016-10-11T01:39:32.667Z,1038.03
2016-10-11T01:40:32.956Z,1038.04
2016-10-11T01:41:32.647Z,1038
2016-10-11T01:42:32.641Z,1038.01
2016-10-11T01:43:32.632Z,1037.97
2016-10-11T01:44:32.923Z,1038.01
2016-10-11T01:45:32.613Z,1037.99
2016-10-11T01:46:33.006Z,1037.98
2016-10-11T01:47:33.445Z,1037.99
2016-10-11T01:48:32.587Z,1037.99
2016-10-11T01:49:32.591Z,1037.99
2016-10-11T01:50:32.572Z,1037.99
2016-10-11T01:51:32.563Z,1037.97
2016-10-11T01:52:32.553Z,1037.95
2016-10-11T01:53:32.544Z,1037.94
2016-10-11T01:54:32.538Z,1037.93
2016-10-11T01:55:32.527Z,1037.91
2016-10-11T01:56:32.520Z,1037.92
2016-10-11T01:57:32.512Z,1037.9
2016-10-11T01:58:32.501Z,1037.91
2016-10-11T01:59:32.495Z,1037.88
2016-10-11T02:00:32.484Z,1037.84
2016-10-11T02:01:32.478Z,1037.87
2016-10-11T02:02:32.468Z,1037.84
2016-10-11T02:03:32.461Z,1037.81
2016-10-11T02:04:32.450Z,1037.8
2016-10-11T02:05:32.442Z,1037.78
2016-10-11T02:06:32.435Z,1037.74
2016-10-11T02:07:32.425Z,1037.73
2016-10-11T02:08:33.246Z,1037.73
2016-10-11T02:09:32.409Z,1037.74
2016-10-11T02:10:32.807Z,1037.71
2016-10-11T02:11:32.391Z,1037.72
2016-10-11T02:12:32.383Z,1037.72
2016-10-11T02:13:32.373Z,1037.66
2016-10-11T02:14:32.365Z,1037.65
2016-10-11T02:15:32.359Z,1037.62
2016-10-11T02:16:32.349Z,1037.65
2016-10-11T02:17:32.341Z,1037.66
2016-10-11T02:18:32.335Z,1037.67
2016-10-11T02:19:32.325Z,1037.69
2016-10-11T02:20:32.318Z,1037.69
2016-10-11T02:21:32.308Z,1037.68
2016-10-11T02:22:32.299Z,1037.68
2016-10-11T02:23:32.291Z,1037.68
2016-10-11T02:24:32.283Z,1037.69
2016-10-11T02:25:32.276Z,1037.73
2016-10-11T02:26:32.266Z,1037.73
2016-10-11T02:27:32.259Z,1037.72
2016-10-11T02:28:32.248Z,1037.73
2016-10-11T02:29:32.241Z,1037.68
2016-10-11T02:30:32.234Z,1037.69
2016-10-11T02:31:32.224Z,1037.68
2016-10-11T02:32:32.217Z,1037.66
2016-10-11T02:33:32.207Z,1037.67
2016-10-11T02:34:32.198Z,1037.67
2016-10-11T02:35:32.191Z,1037.63
2016-10-11T02:36:32.182Z,1037.65
2016-10-11T02:37:32.174Z,1037.69
2016-10-11T02:38:32.164Z,1037.71
2016-10-11T02:39:32.156Z,1037.71
2016-10-11T02:40:32.147Z,1037.68
2016-10-11T02:41:32.139Z,1037.71
2016-10-11T02:42:32.130Z,1037.67
2016-10-11T02:43:32.124Z,1037.64
2016-10-11T02:44:32.115Z,1037.65
2016-10-11T02:45:32.108Z,1037.66
2016-10-11T02:46:32.096Z,1037.66
2016-10-11T02:47:32.090Z,1037.66
2016-10-11T02:48:32.082Z,1037.63
2016-10-11T02:49:32.073Z,1037.61
2016-10-11T02:50:32.063Z,1037.6
2016-10-11T02:51:32.055Z,1037.53
2016-10-11T02:52:32.399Z,1037.56
2016-10-11T02:53:32.339Z,1037.56
2016-10-11T02:54:32.031Z,1037.52
2016-10-11T02:55:32.023Z,1037.51
2016-10-11T02:56:32.015Z,1037.5
2016-10-11T02:57:32.003Z,1037.54
2016-10-11T02:58:31.997Z,1037.51
2016-10-11T02:59:31.987Z,1037.49
2016-10-11T03:00:31.978Z,1037.49
2016-10-11T03:01:31.970Z,1037.45
2016-10-11T03:02:32.362Z,1037.47
2016-10-11T03:03:31.953Z,1037.46
2016-10-11T03:04:31.944Z,1037.46
2016-10-11T03:05:31.936Z,1037.46
2016-10-11T03:06:31.927Z,1037.39
2016-10-11T03:07:31.920Z,1037.37
2016-10-11T03:08:31.911Z,1037.34
2016-10-11T03:09:31.904Z,1037.39
2016-10-11T03:10:32.145Z,1037.3
2016-10-11T03:11:31.884Z,1037.34
2016-10-11T03:12:31.876Z,1037.28
2016-10-11T03:13:31.868Z,1037.26
2016-10-11T03:14:31.862Z,1037.26
2016-10-11T03:15:31.850Z,1037.24
2016-10-11T03:16:31.844Z,1037.24
2016-10-11T03:17:31.834Z,1037.2
2016-10-11T03:18:31.826Z,1037.26
2016-10-11T03:19:31.817Z,1037.24
2016-10-11T03:20:31.815Z,1037.27
2016-10-11T03:21:31.801Z,1037.23
2016-10-11T03:22:31.792Z,1037.21
2016-10-11T03:23:31.785Z,1037.21
2016-10-11T03:24:31.777Z,1037.19
2016-10-11T03:25:31.768Z,1037.19
2016-10-11T03:26:31.760Z,1037.21
2016-10-11T03:27:31.750Z,1037.21
2016-10-11T03:28:31.742Z,1037.18
2016-10-11T03:29:31.734Z,1037.22
2016-10-11T03:30:31.725Z,1037.27
2016-10-11T03:31:32.333Z,1037.36
2016-10-11T03:32:31.711Z,1037.39
2016-10-11T03:33:31.699Z,1037.48
2016-10-11T03:34:31.691Z,1037.55
2016-10-11T03:35:32.295Z,1037.52
2016-10-11T03:36:32.578Z,1037.54
2016-10-11T03:37:31.667Z,1037.55
2016-10-11T03:38:31.658Z,1037.57
2016-10-11T03:39:31.652Z,1037.61
2016-10-11T03:40:31.758Z,1037.6
2016-10-11T03:41:31.632Z,1037.62
2016-10-11T03:42:31.626Z,1037.62
2016-10-11T03:43:31.616Z,1037.55
2016-10-11T03:44:31.610Z,1037.57
2016-10-11T03:45:31.600Z,1037.53
2016-10-11T03:46:31.940Z,1037.5
2016-10-11T03:47:31.583Z,1037.48
2016-10-11T03:48:31.573Z,1037.47
2016-10-11T03:49:31.566Z,1037.4
2016-10-11T03:50:31.558Z,1037.36
2016-10-11T03:51:31.797Z,1037.31
2016-10-11T03:52:31.540Z,1037.3
2016-10-11T03:53:31.531Z,1037.29
2016-10-11T03:54:31.525Z,1037.33
2016-10-11T03:55:31.515Z,1037.36
2016-10-11T03:56:31.757Z,1037.35
2016-10-11T03:57:31.497Z,1037.34
2016-10-11T03:58:31.489Z,1037.33
2016-10-11T03:59:31.481Z,1037.35
2016-10-11T04:00:31.470Z,1037.3
2016-10-11T04:01:31.715Z,1037.33
2016-10-11T04:02:31.454Z,1037.31
2016-10-11T04:03:31.444Z,1037.26
2016-10-11T04:04:31.436Z,1037.32
2016-10-11T04:05:31.430Z,1037.26
2016-10-11T04:06:31.721Z,1037.31
2016-10-11T04:07:31.410Z,1037.26
2016-10-11T04:08:31.404Z,1037.24
2016-10-11T04:09:31.397Z,1037.16
2016-10-11T04:10:31.384Z,1037.17
2016-10-11T04:11:33.280Z,1037.14
2016-10-11T04:12:31.370Z,1037.12
2016-10-11T04:13:31.458Z,1037.11
2016-10-11T04:14:31.351Z,1037.05
2016-10-11T04:15:31.341Z,1037.08
2016-10-11T04:16:31.333Z,1037.06
2016-10-11T04:17:31.326Z,1037.1
2016-10-11T04:18:31.316Z,1037.1
2016-10-11T04:19:31.311Z,1037.08
2016-10-11T04:21:31.390Z,1037.11
2016-10-11T04:22:32.033Z,1037.08
2016-10-11T04:23:31.276Z,1037.1
2016-10-11T04:24:31.266Z,1037.09
2016-10-11T04:25:31.259Z,1037.11
2016-10-11T04:26:31.250Z,1037.06
2016-10-11T04:27:31.242Z,1037.08
2016-10-11T04:28:31.231Z,1037.09
2016-10-11T04:29:31.224Z,1037.08
2016-10-11T04:30:31.214Z,1037.11
2016-10-11T04:31:31.205Z,1037.11
2016-10-11T04:32:31.196Z,1037.14
2016-10-11T04:33:31.188Z,1037.15
2016-10-11T04:34:31.183Z,1037.17
2016-10-11T04:35:31.171Z,1037.19
2016-10-11T04:36:31.164Z,1037.2
2016-10-11T04:37:31.156Z,1037.22
2016-10-11T04:38:31.148Z,1037.26
2016-10-11T04:39:31.137Z,1037.3
2016-10-11T04:40:31.129Z,1037.29
2016-10-11T04:41:31.120Z,1037.28
2016-10-11T04:42:31.112Z,1037.29
2016-10-11T04:43:31.104Z,1037.34
2016-10-11T04:44:31.926Z,1037.35
2016-10-11T04:45:32.553Z,1037.34
2016-10-11T04:46:31.077Z,1037.29
2016-10-11T04:47:31.071Z,1037.29
2016-10-11T04:48:31.061Z,1037.31
2016-10-11T04:49:31.052Z,1037.31
2016-10-11T04:50:31.045Z,1037.29
2016-10-11T04:51:31.034Z,1037.26
2016-10-11T04:52:31.026Z,1037.25
2016-10-11T04:53:31.020Z,1037.22
2016-10-11T04:54:31.011Z,1037.2
2016-10-11T04:55:31.000Z,1037.16
2016-10-11T04:56:30.993Z,1037.13
2016-10-11T04:57:30.985Z,1037.06
2016-10-11T04:58:30.974Z,1037.06
2016-10-11T04:59:30.968Z,1037.06
2016-10-11T05:00:30.960Z,1037.05
2016-10-11T05:01:30.950Z,1037.03
2016-10-11T05:02:30.943Z,1036.99
2016-10-11T05:03:30.932Z,1036.99
2016-10-11T05:04:30.924Z,1037.01
2016-10-11T05:05:30.915Z,1037.01
2016-10-11T05:06:30.909Z,1036.99
2016-10-11T05:07:30.900Z,1036.94
2016-10-11T05:08:30.889Z,1036.96
2016-10-11T05:09:30.881Z,1036.91
2016-10-11T05:10:30.875Z,1036.95
2016-10-11T05:11:30.867Z,1036.88
2016-10-11T05:12:30.855Z,1036.92
2016-10-11T05:13:30.849Z,1036.89
2016-10-11T05:14:30.841Z,1036.87
2016-10-11T05:15:30.831Z,1036.88
2016-10-11T05:16:30.823Z,1036.82
2016-10-11T05:17:30.814Z,1036.81
2016-10-11T05:18:30.812Z,1036.76
2016-10-11T05:19:30.797Z,1036.79
2016-10-11T05:20:30.788Z,1036.8
2016-10-11T05:21:30.782Z,1036.8
2016-10-11T05:22:30.774Z,1036.79
2016-10-11T05:23:30.765Z,1036.8
2016-10-11T05:24:30.757Z,1036.76
2016-10-11T05:25:30.749Z,1036.74
2016-10-11T05:26:30.739Z,1036.72
2016-10-11T05:27:30.733Z,1036.74
2016-10-11T05:28:30.725Z,1036.71
2016-10-11T05:29:30.715Z,1036.79
2016-10-11T05:30:30.708Z,1036.77
2016-10-11T05:31:30.698Z,1036.74
2016-10-11T05:32:30.692Z,1036.74
2016-10-11T05:33:30.684Z,1036.7
2016-10-11T05:34:30.675Z,1036.71
2016-10-11T05:35:30.665Z,1036.7
2016-10-11T05:36:30.659Z,1036.73
2016-10-11T05:37:30.651Z,1036.7
2016-10-11T05:38:30.640Z,1036.68
2016-10-11T05:39:30.633Z,1036.64
2016-10-11T05:41:30.616Z,1036.61
2016-10-11T05:42:30.610Z,1036.55
2016-10-11T05:43:30.600Z,1036.52
2016-10-11T05:44:30.594Z,1036.49
2016-10-11T05:45:30.583Z,1036.46
2016-10-11T05:46:30.578Z,1036.41
2016-10-11T05:47:30.570Z,1036.43
2016-10-11T05:48:30.559Z,1036.39
2016-10-11T05:49:30.554Z,1036.36
2016-10-11T05:50:30.544Z,1036.37
2016-10-11T05:51:30.537Z,1036.36
2016-10-11T05:52:30.528Z,1036.33
2016-10-11T05:53:30.520Z,1036.36
2016-10-11T05:54:30.512Z,1036.3
2016-10-11T05:55:30.505Z,1036.29
2016-10-11T05:56:30.496Z,1036.3
2016-10-11T05:57:30.490Z,1036.26
2016-10-11T05:58:30.483Z,1036.22
2016-10-11T05:59:30.472Z,1036.26
2016-10-11T06:00:30.466Z,1036.26
2016-10-11T06:01:30.459Z,1036.25
2016-10-11T06:02:30.452Z,1036.19
2016-10-11T06:03:30.441Z,1036.15
2016-10-11T06:04:30.436Z,1036.17
2016-10-11T06:05:30.428Z,1036.11
2016-10-11T06:06:31.304Z,1036.11
2016-10-11T06:07:30.525Z,1036.06
2016-10-11T06:08:30.403Z,1035.98
2016-10-11T06:09:30.396Z,1036
2016-10-11T06:10:30.388Z,1035.95
2016-10-11T06:11:30.382Z,1035.93
2016-10-11T06:12:30.375Z,1035.85
2016-10-11T06:13:30.368Z,1035.82
2016-10-11T06:14:30.358Z,1035.78
2016-10-11T06:15:30.353Z,1035.72
2016-10-11T06:16:31.178Z,1035.68
2016-10-11T06:17:30.338Z,1035.68
2016-10-11T06:18:30.591Z,1035.64
2016-10-11T06:19:30.516Z,1035.6
2016-10-11T06:20:30.314Z,1035.61
2016-10-11T06:21:30.307Z,1035.58
2016-10-11T06:22:30.301Z,1035.52
2016-10-11T06:23:30.294Z,1035.51
2016-10-11T06:24:30.287Z,1035.49
2016-10-11T06:25:30.279Z,1035.42
2016-10-11T06:26:30.272Z,1035.45
2016-10-11T06:27:30.265Z,1035.49
2016-10-11T06:28:30.257Z,1035.56
2016-10-11T06:29:30.251Z,1035.56
2016-10-11T06:30:30.242Z,1035.58
2016-10-11T06:31:30.236Z,1035.57
2016-10-11T06:32:30.228Z,1035.59
2016-10-11T06:33:30.221Z,1035.54
2016-10-11T06:34:30.216Z,1035.55
2016-10-11T06:35:30.210Z,1035.49
2016-10-11T06:36:30.202Z,1035.44
2016-10-11T06:37:30.193Z,1035.43
2016-10-11T06:38:30.189Z,1035.32
2016-10-11T06:39:30.183Z,1035.23
2016-10-11T06:40:30.172Z,1035.2
2016-10-11T06:41:30.166Z,1035.21
2016-10-11T06:42:30.161Z,1035.22
2016-10-11T06:43:30.151Z,1035.21
2016-10-11T06:44:30.145Z,1035.22
2016-10-11T06:45:30.140Z,1035.28
2016-10-11T06:46:30.135Z,1035.28
2016-10-11T06:47:30.126Z,1035.26
2016-10-11T06:48:30.118Z,1035.21
2016-10-11T06:49:30.565Z,1035.26
2016-10-11T06:50:30.107Z,1035.26
2016-10-11T06:51:30.701Z,1035.23
2016-10-11T06:52:30.094Z,1035.28
2016-10-11T06:53:30.088Z,1035.29
2016-10-11T06:54:30.082Z,1035.28
2016-10-11T06:55:30.074Z,1035.31
2016-10-11T06:56:30.067Z,1035.36
2016-10-11T06:57:30.410Z,1035.38
2016-10-11T06:58:30.054Z,1035.4
2016-10-11T06:59:30.045Z,1035.4
2016-10-11T07:00:30.041Z,1035.45
2016-10-11T07:01:30.037Z,1035.43
2016-10-11T07:02:30.026Z,1035.4
2016-10-11T07:03:30.020Z,1035.42
2016-10-11T07:04:30.014Z,1035.37
2016-10-11T07:05:30.006Z,1035.37
2016-10-11T07:06:30.000Z,1035.37
2016-10-11T07:07:29.996Z,1035.4
2016-10-11T07:08:29.989Z,1035.42
2016-10-11T07:09:29.980Z,1035.44
2016-10-11T07:10:29.975Z,1035.39
2016-10-11T07:11:29.967Z,1035.42
2016-10-11T07:12:29.964Z,1035.39
2016-10-11T07:13:29.956Z,1035.35
2016-10-11T07:14:29.948Z,1035.39
2016-10-11T07:15:29.941Z,1035.45
2016-10-11T07:16:29.935Z,1035.5
2016-10-11T07:17:29.928Z,1035.51
2016-10-11T07:18:29.924Z,1035.58
2016-10-11T07:19:29.916Z,1035.64
2016-10-11T07:20:29.911Z,1035.72
2016-10-11T07:21:29.905Z,1035.76
2016-10-11T07:22:29.898Z,1035.73
2016-10-11T07:23:30.497Z,1035.78
2016-10-11T07:24:29.885Z,1035.75
2016-10-11T07:25:29.876Z,1035.77
2016-10-11T07:26:30.350Z,1035.66
2016-10-11T07:27:29.863Z,1035.65
2016-10-11T07:28:29.859Z,1035.59
2016-10-11T07:29:29.851Z,1035.56
2016-10-11T07:30:29.846Z,1035.49
2016-10-11T07:31:29.839Z,1035.34
2016-10-11T07:32:30.538Z,1035.34
2016-10-11T07:33:29.826Z,1035.29
2016-10-11T07:34:29.821Z,1035.24
2016-10-11T07:35:29.815Z,1035.25
2016-10-11T07:36:29.806Z,1035.25
2016-10-11T07:37:29.802Z,1035.11
2016-10-11T07:38:29.797Z,1035.03
2016-10-11T07:39:29.789Z,1034.98
2016-10-11T07:40:29.782Z,1034.94
2016-10-11T07:41:29.778Z,1034.92
2016-10-11T07:42:29.769Z,1034.92
2016-10-11T07:43:29.765Z,1034.85
2016-10-11T07:44:29.758Z,1034.89
2016-10-11T07:45:29.751Z,1034.94
2016-10-11T07:46:29.745Z,1034.96
2016-10-11T07:47:29.742Z,1035.06
2016-10-11T07:48:29.736Z,1035.13
2016-10-11T07:49:29.729Z,1035.21
2016-10-11T07:50:29.722Z,1035.2
2016-10-11T07:51:29.717Z,1035.24
2016-10-11T07:52:29.713Z,1035.21
2016-10-11T07:53:29.706Z,1035.21
2016-10-11T07:54:29.699Z,1035.15
2016-10-11T07:55:29.694Z,1035.19
2016-10-11T07:56:29.689Z,1035.19
2016-10-11T07:57:29.684Z,1035.17
2016-10-11T07:58:29.676Z,1035.18
2016-10-11T07:59:29.673Z,1035.1
2016-10-11T08:00:29.667Z,1035.05
2016-10-11T08:01:29.659Z,1035
2016-10-11T08:02:29.656Z,1034.97
2016-10-11T08:03:29.648Z,1034.91
2016-10-11T08:04:29.644Z,1034.94
2016-10-11T08:05:29.639Z,1035
2016-10-11T08:06:29.633Z,1034.99
2016-10-11T08:07:29.626Z,1034.95
2016-10-11T08:08:29.620Z,1034.91
2016-10-11T08:09:29.615Z,1034.85
2016-10-11T08:10:29.610Z,1034.76
2016-10-11T08:11:29.602Z,1034.71
2016-10-11T08:12:29.800Z,1034.65
2016-10-11T08:13:29.591Z,1034.57
2016-10-11T08:14:29.588Z,1034.56
2016-10-11T08:16:29.577Z,1034.44
2016-10-11T08:17:29.920Z,1034.45
2016-10-11T08:18:29.816Z,1034.51
2016-10-11T08:19:29.558Z,1034.65
2016-10-11T08:20:29.553Z,1034.75
2016-10-11T08:21:29.599Z,1034.83
2016-10-11T08:22:29.544Z,1034.96
2016-10-11T08:23:29.539Z,1034.98
2016-10-11T08:24:29.532Z,1035.05
2016-10-11T08:25:29.527Z,1034.99
2016-10-11T08:26:29.524Z,1035.01
2016-10-11T08:27:29.515Z,1035.02
2016-10-11T08:28:29.512Z,1035.01
2016-10-11T08:29:29.505Z,1035.09
2016-10-11T08:30:29.499Z,1035.05
2016-10-11T08:31:29.496Z,1035.04
2016-10-11T08:32:29.490Z,1035.05
2016-10-11T08:33:29.484Z,1035.02
2016-10-11T08:34:29.477Z,1034.96
2016-10-11T08:35:29.474Z,1034.87
2016-10-11T08:36:29.468Z,1034.81
2016-10-11T08:37:29.464Z,1034.81
2016-10-11T08:38:29.458Z,1034.81
2016-10-11T08:39:29.453Z,1034.71
2016-10-11T08:40:29.447Z,1034.68
2016-10-11T08:41:29.442Z,1034.62
2016-10-11T08:42:29.437Z,1034.63
2016-10-11T08:43:29.431Z,1034.61
2016-10-11T08:44:29.513Z,1034.63
2016-10-11T08:45:29.418Z,1034.7
2016-10-11T08:46:29.415Z,1034.71
2016-10-11T08:47:29.409Z,1034.71
2016-10-11T08:48:29.404Z,1034.56
2016-10-11T08:49:29.397Z,1034.47
2016-10-11T08:50:29.394Z,1034.44
2016-10-11T08:51:29.388Z,1034.4
2016-10-11T08:52:29.383Z,1034.29
2016-10-11T08:53:29.376Z,1034.27
2016-10-11T08:54:29.373Z,1034.23
2016-10-11T08:55:29.365Z,1034.2
2016-10-11T08:56:29.362Z,1034.11
2016-10-11T08:57:29.355Z,1034.05
2016-10-11T08:58:29.352Z,1033.98
2016-10-11T08:59:29.347Z,1033.9
2016-10-11T09:00:29.342Z,1033.9
2016-10-11T09:01:29.338Z,1033.93
2016-10-11T09:02:29.332Z,1033.93
2016-10-11T09:03:29.327Z,1033.94
2016-10-11T09:04:29.323Z,1033.9
2016-10-11T09:05:29.319Z,1033.87
2016-10-11T09:06:29.313Z,1033.84
2016-10-11T09:07:29.316Z,1033.77
2016-10-11T09:08:29.304Z,1033.88
2016-10-11T09:09:29.299Z,1033.89
2016-10-11T09:10:29.295Z,1033.91
2016-10-11T09:11:29.289Z,1033.96
2016-10-11T09:12:29.284Z,1033.97
2016-10-11T09:13:29.280Z,1033.91
2016-10-11T09:14:29.277Z,1033.89
2016-10-11T09:15:29.270Z,1033.88
2016-10-11T09:16:29.266Z,1033.92
2016-10-11T09:17:29.263Z,1033.93
2016-10-11T09:18:29.257Z,1033.95
2016-10-11T09:19:29.255Z,1033.99
2016-10-11T09:20:29.247Z,1034.03
2016-10-11T09:21:29.245Z,1034.05
2016-10-11T09:22:29.240Z,1034.09
2016-10-11T09:23:29.236Z,1034.08
2016-10-11T09:24:30.483Z,1034.1
2016-10-11T09:25:29.427Z,1034.11
2016-10-11T09:27:29.216Z,1034.07
2016-10-11T09:28:29.213Z,1034.06
2016-10-11T09:29:29.208Z,1034.15
2016-10-11T09:30:29.204Z,1034.29
2016-10-11T09:31:29.199Z,1034.46
2016-10-11T09:32:29.193Z,1034.59
2016-10-11T09:33:29.187Z,1034.73
2016-10-11T09:34:29.185Z,1034.8
2016-10-11T09:35:29.178Z,1034.93
2016-10-11T09:36:29.174Z,1035.03
2016-10-11T09:37:29.168Z,1035.08
2016-10-11T09:38:29.165Z,1034.98
2016-10-11T09:39:29.159Z,1034.89
2016-10-11T09:40:29.154Z,1034.9
2016-10-11T09:41:29.149Z,1034.88
2016-10-11T09:42:29.143Z,1034.84
2016-10-11T09:43:29.138Z,1034.79
2016-10-11T09:44:29.132Z,1034.77
2016-10-11T09:45:29.128Z,1034.71
2016-10-11T09:46:29.121Z,1034.7
2016-10-11T09:47:29.116Z,1034.69
2016-10-11T09:48:29.110Z,1034.69
2016-10-11T09:49:29.105Z,1034.64
2016-10-11T09:50:29.099Z,1034.68
2016-10-11T09:51:29.098Z,1034.69
2016-10-11T09:52:29.091Z,1034.73
2016-10-11T09:53:29.085Z,1034.79
2016-10-11T09:54:29.078Z,1034.83
2016-10-11T09:55:29.074Z,1034.88
2016-10-11T09:56:29.069Z,1034.76
2016-10-11T09:57:29.061Z,1034.71
2016-10-11T09:58:29.443Z,1034.65
2016-10-11T09:59:29.053Z,1034.54
2016-10-11T10:00:29.048Z,1034.41
2016-10-11T10:01:29.816Z,1034.33
2016-10-11T10:02:29.034Z,1034.28
2016-10-11T10:03:29.217Z,1034.27
2016-10-11T10:04:29.026Z,1034.25
2016-10-11T10:05:29.020Z,1034.26
2016-10-11T10:06:29.016Z,1034.27
2016-10-11T10:07:29.009Z,1034.26
2016-10-11T10:08:29.004Z,1034.28
2016-10-11T10:09:29.000Z,1034.36
2016-10-11T10:10:28.995Z,1034.49
2016-10-11T10:11:29.798Z,1034.61
2016-10-11T10:12:28.985Z,1034.58
2016-10-11T10:13:28.981Z,1034.57
2016-10-11T10:14:28.976Z,1034.53
2016-10-11T10:15:28.970Z,1034.53
2016-10-11T10:16:28.963Z,1034.52
2016-10-11T10:17:28.958Z,1034.43
2016-10-11T10:18:28.954Z,1034.39
2016-10-11T10:19:28.949Z,1034.4
2016-10-11T10:20:28.943Z,1034.48
2016-10-11T10:21:28.937Z,1034.6
2016-10-11T10:22:28.931Z,1034.69
2016-10-11T10:23:28.929Z,1034.78
2016-10-11T10:24:28.922Z,1034.85
2016-10-11T10:25:28.919Z,1034.81
2016-10-11T10:26:28.912Z,1034.78
2016-10-11T10:27:28.907Z,1034.76
2016-10-11T10:28:28.900Z,1034.75
2016-10-11T10:29:28.895Z,1034.63
2016-10-11T10:30:28.891Z,1034.57
2016-10-11T10:31:28.886Z,1034.54
2016-10-11T10:32:28.879Z,1034.53
2016-10-11T10:33:28.873Z,1034.53
2016-10-11T10:34:28.870Z,1034.51
2016-10-11T10:35:28.863Z,1034.5
2016-10-11T10:36:28.858Z,1034.54
2016-10-11T10:37:28.854Z,1034.54
2016-10-11T10:38:28.847Z,1034.54
2016-10-11T10:39:28.841Z,1034.51
2016-10-11T10:40:28.837Z,1034.49
2016-10-11T10:41:28.832Z,1034.48
2016-10-11T10:42:28.826Z,1034.5
2016-10-11T10:43:28.820Z,1034.51
2016-10-11T10:44:28.814Z,1034.55
2016-10-11T10:45:28.810Z,1034.61
2016-10-11T10:46:28.805Z,1034.68
2016-10-11T10:47:29.351Z,1034.7
2016-10-11T10:48:28.794Z,1034.74
2016-10-11T10:49:28.789Z,1034.76
2016-10-11T10:50:28.783Z,1034.77
2016-10-11T10:51:29.029Z,1034.78
2016-10-11T10:52:29.525Z,1034.79
2016-10-11T10:53:28.768Z,1034.78
2016-10-11T10:54:28.761Z,1034.86
2016-10-11T10:55:28.755Z,1034.91
2016-10-11T10:56:28.752Z,1034.89
2016-10-11T10:57:28.745Z,1034.89
2016-10-11T10:58:28.790Z,1034.8
2016-10-11T10:59:28.735Z,1034.72
2016-10-11T11:00:28.728Z,1034.68
2016-10-11T11:01:28.725Z,1034.62
2016-10-11T11:02:28.720Z,1034.58
2016-10-11T11:03:28.713Z,1034.55
2016-10-11T11:04:28.706Z,1034.5
2016-10-11T11:05:28.703Z,1034.48
2016-10-11T11:06:28.697Z,1034.52
2016-10-11T11:07:28.690Z,1034.51
2016-10-11T11:08:28.686Z,1034.46
2016-10-11T11:09:28.681Z,1034.44
2016-10-11T11:10:28.675Z,1034.38
2016-10-11T11:11:28.668Z,1034.33
2016-10-11T11:12:28.663Z,1034.31
2016-10-11T11:13:28.659Z,1034.29
2016-10-11T11:14:28.653Z,1034.37
2016-10-11T11:15:28.646Z,1034.49
2016-10-11T11:16:29.404Z,1034.61
2016-10-11T11:17:28.637Z,1034.67
2016-10-11T11:18:29.770Z,1034.68
2016-10-11T11:19:28.626Z,1034.62
2016-10-11T11:20:28.620Z,1034.55
2016-10-11T11:21:28.947Z,1034.59
2016-10-11T11:22:28.610Z,1034.6
2016-10-11T11:23:28.605Z,1034.64
2016-10-11T11:24:28.598Z,1034.74
2016-10-11T11:25:28.591Z,1034.78
2016-10-11T11:26:28.586Z,1034.88
2016-10-11T11:27:29.815Z,1034.94
2016-10-11T11:28:28.575Z,1035.06
2016-10-11T11:29:28.569Z,1035.1
2016-10-11T11:30:28.564Z,1035.14
2016-10-11T11:31:28.558Z,1035.17
2016-10-11T11:32:28.554Z,1035.16
2016-10-11T11:33:28.548Z,1035.21
2016-10-11T11:34:28.542Z,1035.31
2016-10-11T11:35:28.537Z,1035.34
2016-10-11T11:36:28.530Z,1035.42
2016-10-11T11:37:28.522Z,1035.38
2016-10-11T11:38:28.517Z,1035.43
2016-10-11T11:39:28.512Z,1035.46
2016-10-11T11:40:28.506Z,1035.39
2016-10-11T11:41:28.500Z,1035.4
2016-10-11T11:42:28.494Z,1035.42
2016-10-11T11:43:28.487Z,1035.4
2016-10-11T11:44:28.479Z,1035.36
2016-10-11T11:45:28.473Z,1035.37
2016-10-11T11:46:28.469Z,1035.42
2016-10-11T11:47:28.462Z,1035.4
2016-10-11T11:48:28.456Z,1035.37
2016-10-11T11:49:28.450Z,1035.38
2016-10-11T11:50:28.443Z,1035.37
2016-10-11T11:51:28.437Z,1035.4
2016-10-11T11:52:28.429Z,1035.36
2016-10-11T11:53:28.424Z,1035.3
2016-10-11T11:54:28.417Z,1035.26
2016-10-11T11:55:28.410Z,1035.18
2016-10-11T11:56:28.404Z,1035.17
2016-10-11T11:57:28.397Z,1035.18
2016-10-11T11:58:28.391Z,1035.17
2016-10-11T11:59:28.382Z,1035.22
2016-10-11T12:00:29.680Z,1035.27
2016-10-11T12:01:28.368Z,1035.28
2016-10-11T12:02:29.013Z,1035.33
2016-10-11T12:03:28.808Z,1035.31
2016-10-11T12:04:28.654Z,1035.37
2016-10-11T12:05:28.392Z,1035.35
2016-10-11T12:06:28.338Z,1035.31
2016-10-11T12:07:28.331Z,1035.25
2016-10-11T12:08:28.323Z,1035.16
2016-10-11T12:09:30.819Z,1035.13
2016-10-11T12:10:28.309Z,1035.15
2016-10-11T12:11:28.304Z,1035.23
2016-10-11T12:12:28.296Z,1035.27
2016-10-11T12:13:28.290Z,1035.2